sensor_id;sensor_type;location;lat;lon;timestamp;P1;durP1;ratioP1;P2;durP2;ratioP2
20443;SDS011;10381;53.730;10.010;2023-07-22T00:01:36;27.37;;;10.93;;
20443;SDS011;10381;53.730;10.010;2023-07-22T00:05:37;33.43;;;10.53;;
20443;SDS011;10381;53.730;10.010;2023-07-22T00:09:37;26.37;;;10.80;;
20443;SDS011;10381;53.730;10.010;2023-07-22T00:13:38;28.67;;;12.23;;
20443;SDS011;10381;53.730;10.010;2023-07-22T00:17:39;33.50;;;11.57;;
20443;SDS011;10381;53.730;10.010;2023-07-22T00:21:41;32.97;;;11.20;;
20443;SDS011;10381;53.730;10.010;2023-07-22T00:25:41;26.67;;;11.90;;
20443;SDS011;10381;53.730;10.010;2023-07-22T00:29:42;28.50;;;11.13;;
20443;SDS011;10381;53.730;10.010;2023-07-22T00:33:42;29.27;;;12.07;;
20443;SDS011;10381;53.730;10.010;2023-07-22T00:37:42;38.67;;;12.43;;
20443;SDS011;10381;53.730;10.010;2023-07-22T00:41:43;30.45;;;12.00;;
20443;SDS011;10381;53.730;10.010;2023-07-22T00:45:44;29.58;;;12.15;;
20443;SDS011;10381;53.730;10.010;2023-07-22T00:49:47;40.20;;;12.63;;
20443;SDS011;10381;53.730;10.010;2023-07-22T00:53:49;32.35;;;12.32;;
20443;SDS011;10381;53.730;10.010;2023-07-22T00:57:49;31.42;;;11.68;;
20443;SDS011;10381;53.730;10.010;2023-07-22T01:01:49;33.33;;;13.55;;
20443;SDS011;10381;53.730;10.010;2023-07-22T01:05:50;42.97;;;12.93;;
20443;SDS011;10381;53.730;10.010;2023-07-22T01:09:55;30.45;;;11.15;;
20443;SDS011;10381;53.730;10.010;2023-07-22T01:13:56;25.23;;;10.88;;
20443;SDS011;10381;53.730;10.010;2023-07-22T01:17:59;29.08;;;11.80;;
20443;SDS011;10381;53.730;10.010;2023-07-22T01:22:03;33.00;;;11.32;;
20443;SDS011;10381;53.730;10.010;2023-07-22T01:26:05;28.52;;;11.25;;
20443;SDS011;10381;53.730;10.010;2023-07-22T01:30:06;36.65;;;11.27;;
20443;SDS011;10381;53.730;10.010;2023-07-22T01:34:09;35.05;;;13.10;;
20443;SDS011;10381;53.730;10.010;2023-07-22T01:38:09;37.07;;;12.07;;
20443;SDS011;10381;53.730;10.010;2023-07-22T01:42:10;30.63;;;12.93;;
20443;SDS011;10381;53.730;10.010;2023-07-22T01:46:10;29.00;;;11.37;;
20443;SDS011;10381;53.730;10.010;2023-07-22T01:50:10;30.63;;;11.83;;
20443;SDS011;10381;53.730;10.010;2023-07-22T01:54:11;37.13;;;13.07;;
20443;SDS011;10381;53.730;10.010;2023-07-22T01:58:12;37.90;;;12.23;;
20443;SDS011;10381;53.730;10.010;2023-07-22T02:02:13;33.55;;;12.55;;
20443;SDS011;10381;53.730;10.010;2023-07-22T02:06:13;37.85;;;13.18;;
20443;SDS011;10381;53.730;10.010;2023-07-22T02:10:14;53.93;;;13.97;;
20443;SDS011;10381;53.730;10.010;2023-07-22T02:14:14;35.20;;;12.63;;
20443;SDS011;10381;53.730;10.010;2023-07-22T02:18:14;42.63;;;13.43;;
20443;SDS011;10381;53.730;10.010;2023-07-22T02:22:14;34.40;;;12.40;;
20443;SDS011;10381;53.730;10.010;2023-07-22T02:26:15;35.28;;;12.05;;
20443;SDS011;10381;53.730;10.010;2023-07-22T02:30:15;42.00;;;11.67;;
20443;SDS011;10381;53.730;10.010;2023-07-22T02:34:15;25.17;;;11.18;;
20443;SDS011;10381;53.730;10.010;2023-07-22T02:38:16;49.28;;;11.85;;
20443;SDS011;10381;53.730;10.010;2023-07-22T02:42:16;37.47;;;11.25;;
20443;SDS011;10381;53.730;10.010;2023-07-22T02:46:17;34.87;;;11.70;;
20443;SDS011;10381;53.730;10.010;2023-07-22T02:50:18;27.58;;;11.10;;
20443;SDS011;10381;53.730;10.010;2023-07-22T02:54:18;29.50;;;11.30;;
20443;SDS011;10381;53.730;10.010;2023-07-22T02:58:18;33.90;;;10.37;;
20443;SDS011;10381;53.730;10.010;2023-07-22T03:02:18;29.80;;;10.23;;
20443;SDS011;10381;53.730;10.010;2023-07-22T03:06:19;24.83;;;9.65;;
20443;SDS011;10381;53.730;10.010;2023-07-22T03:10:19;33.17;;;9.67;;
20443;SDS011;10381;53.730;10.010;2023-07-22T03:14:19;33.47;;;9.98;;
20443;SDS011;10381;53.730;10.010;2023-07-22T03:18:22;30.67;;;9.82;;
20443;SDS011;10381;53.730;10.010;2023-07-22T03:22:22;30.25;;;9.30;;
20443;SDS011;10381;53.730;10.010;2023-07-22T03:26:22;24.40;;;9.20;;
20443;SDS011;10381;53.730;10.010;2023-07-22T03:30:23;30.40;;;9.60;;
20443;SDS011;10381;53.730;10.010;2023-07-22T03:34:23;20.27;;;9.67;;
20443;SDS011;10381;53.730;10.010;2023-07-22T03:38:23;32.60;;;10.93;;
20443;SDS011;10381;53.730;10.010;2023-07-22T03:42:24;26.02;;;9.68;;
20443;SDS011;10381;53.730;10.010;2023-07-22T03:46:24;31.13;;;10.20;;
20443;SDS011;10381;53.730;10.010;2023-07-22T03:50:25;30.83;;;9.20;;
20443;SDS011;10381;53.730;10.010;2023-07-22T03:54:25;24.15;;;9.45;;
20443;SDS011;10381;53.730;10.010;2023-07-22T03:58:26;26.67;;;10.30;;
20443;SDS011;10381;53.730;10.010;2023-07-22T04:02:26;34.27;;;9.90;;
20443;SDS011;10381;53.730;10.010;2023-07-22T04:06:26;29.13;;;8.90;;
20443;SDS011;10381;53.730;10.010;2023-07-22T04:10:27;27.53;;;9.80;;
20443;SDS011;10381;53.730;10.010;2023-07-22T04:14:27;28.60;;;9.63;;
20443;SDS011;10381;53.730;10.010;2023-07-22T04:18:27;30.70;;;10.90;;
20443;SDS011;10381;53.730;10.010;2023-07-22T04:22:33;30.13;;;9.57;;
20443;SDS011;10381;53.730;10.010;2023-07-22T04:26:33;25.47;;;10.00;;
20443;SDS011;10381;53.730;10.010;2023-07-22T04:30:34;25.38;;;9.75;;
20443;SDS011;10381;53.730;10.010;2023-07-22T04:34:35;25.23;;;9.23;;
20443;SDS011;10381;53.730;10.010;2023-07-22T04:38:35;38.00;;;9.90;;
20443;SDS011;10381;53.730;10.010;2023-07-22T04:42:35;32.87;;;9.97;;
20443;SDS011;10381;53.730;10.010;2023-07-22T04:46:36;22.07;;;9.20;;
20443;SDS011;10381;53.730;10.010;2023-07-22T04:50:36;36.03;;;9.10;;
20443;SDS011;10381;53.730;10.010;2023-07-22T04:54:41;24.65;;;8.80;;
20443;SDS011;10381;53.730;10.010;2023-07-22T04:58:42;26.55;;;10.38;;
20443;SDS011;10381;53.730;10.010;2023-07-22T05:02:43;29.23;;;8.82;;
20443;SDS011;10381;53.730;10.010;2023-07-22T05:06:44;25.65;;;9.63;;
20443;SDS011;10381;53.730;10.010;2023-07-22T05:10:44;19.93;;;8.87;;
20443;SDS011;10381;53.730;10.010;2023-07-22T05:14:45;32.15;;;9.75;;
20443;SDS011;10381;53.730;10.010;2023-07-22T05:18:45;21.70;;;9.13;;
20443;SDS011;10381;53.730;10.010;2023-07-22T05:22:46;19.17;;;7.73;;
20443;SDS011;10381;53.730;10.010;2023-07-22T05:26:46;17.70;;;7.65;;
20443;SDS011;10381;53.730;10.010;2023-07-22T05:30:47;18.60;;;7.13;;
20443;SDS011;10381;53.730;10.010;2023-07-22T05:34:48;27.08;;;9.85;;
20443;SDS011;10381;53.730;10.010;2023-07-22T05:38:48;28.27;;;11.13;;
20443;SDS011;10381;53.730;10.010;2023-07-22T05:42:48;30.37;;;12.03;;
20443;SDS011;10381;53.730;10.010;2023-07-22T05:46:48;22.40;;;8.33;;
20443;SDS011;10381;53.730;10.010;2023-07-22T05:50:49;37.47;;;12.80;;
20443;SDS011;10381;53.730;10.010;2023-07-22T05:54:49;24.80;;;11.00;;
20443;SDS011;10381;53.730;10.010;2023-07-22T05:58:50;21.45;;;10.90;;
20443;SDS011;10381;53.730;10.010;2023-07-22T06:02:50;21.43;;;10.77;;
20443;SDS011;10381;53.730;10.010;2023-07-22T06:06:50;19.33;;;13.10;;
20443;SDS011;10381;53.730;10.010;2023-07-22T06:10:50;20.67;;;11.97;;
20443;SDS011;10381;53.730;10.010;2023-07-22T06:14:51;18.00;;;11.10;;
20443;SDS011;10381;53.730;10.010;2023-07-22T06:18:51;14.50;;;10.00;;
20443;SDS011;10381;53.730;10.010;2023-07-22T06:22:51;11.18;;;10.02;;
20443;SDS011;10381;53.730;10.010;2023-07-22T06:26:52;13.93;;;11.02;;
20443;SDS011;10381;53.730;10.010;2023-07-22T06:30:52;12.83;;;10.63;;
20443;SDS011;10381;53.730;10.010;2023-07-22T06:34:52;10.90;;;9.73;;
20443;SDS011;10381;53.730;10.010;2023-07-22T06:38:52;12.60;;;11.38;;
20443;SDS011;10381;53.730;10.010;2023-07-22T06:42:54;13.75;;;11.35;;
20443;SDS011;10381;53.730;10.010;2023-07-22T06:46:54;13.13;;;11.10;;
20443;SDS011;10381;53.730;10.010;2023-07-22T06:50:55;15.20;;;11.30;;
20443;SDS011;10381;53.730;10.010;2023-07-22T06:54:56;32.93;;;18.47;;
20443;SDS011;10381;53.730;10.010;2023-07-22T06:58:57;59.00;;;24.30;;
20443;SDS011;10381;53.730;10.010;2023-07-22T07:02:57;15.82;;;14.18;;
20443;SDS011;10381;53.730;10.010;2023-07-22T07:06:58;13.98;;;12.43;;
20443;SDS011;10381;53.730;10.010;2023-07-22T07:10:59;13.38;;;12.07;;
20443;SDS011;10381;53.730;10.010;2023-07-22T07:15:01;12.05;;;10.80;;
20443;SDS011;10381;53.730;10.010;2023-07-22T07:19:01;10.82;;;9.73;;
20443;SDS011;10381;53.730;10.010;2023-07-22T07:23:02;10.43;;;9.48;;
20443;SDS011;10381;53.730;10.010;2023-07-22T07:27:02;16.23;;;9.73;;
20443;SDS011;10381;53.730;10.010;2023-07-22T07:31:02;11.25;;;10.15;;
20443;SDS011;10381;53.730;10.010;2023-07-22T07:35:03;11.80;;;10.50;;
20443;SDS011;10381;53.730;10.010;2023-07-22T07:39:04;11.93;;;10.32;;
20443;SDS011;10381;53.730;10.010;2023-07-22T07:43:04;11.27;;;10.17;;
20443;SDS011;10381;53.730;10.010;2023-07-22T07:47:04;16.67;;;12.13;;
20443;SDS011;10381;53.730;10.010;2023-07-22T07:51:05;13.10;;;12.00;;
20443;SDS011;10381;53.730;10.010;2023-07-22T07:55:05;15.10;;;13.27;;
20443;SDS011;10381;53.730;10.010;2023-07-22T07:59:06;15.18;;;12.35;;
20443;SDS011;10381;53.730;10.010;2023-07-22T08:03:08;11.43;;;10.55;;
20443;SDS011;10381;53.730;10.010;2023-07-22T08:07:09;12.55;;;11.40;;
20443;SDS011;10381;53.730;10.010;2023-07-22T08:11:10;13.20;;;10.77;;
20443;SDS011;10381;53.730;10.010;2023-07-22T08:15:13;11.88;;;10.77;;
20443;SDS011;10381;53.730;10.010;2023-07-22T08:19:13;12.40;;;11.40;;
20443;SDS011;10381;53.730;10.010;2023-07-22T08:23:14;10.88;;;10.07;;
20443;SDS011;10381;53.730;10.010;2023-07-22T08:27:14;11.50;;;10.63;;
20443;SDS011;10381;53.730;10.010;2023-07-22T08:31:14;10.53;;;9.63;;
20443;SDS011;10381;53.730;10.010;2023-07-22T08:35:15;11.02;;;10.20;;
20443;SDS011;10381;53.730;10.010;2023-07-22T08:39:17;8.50;;;7.90;;
20443;SDS011;10381;53.730;10.010;2023-07-22T08:43:19;11.82;;;10.93;;
20443;SDS011;10381;53.730;10.010;2023-07-22T08:47:20;12.30;;;11.15;;
20443;SDS011;10381;53.730;10.010;2023-07-22T08:51:22;13.55;;;11.23;;
20443;SDS011;10381;53.730;10.010;2023-07-22T08:55:25;9.50;;;8.00;;
20443;SDS011;10381;53.730;10.010;2023-07-22T08:59:25;9.50;;;8.57;;
20443;SDS011;10381;53.730;10.010;2023-07-22T09:03:25;9.30;;;8.60;;
20443;SDS011;10381;53.730;10.010;2023-07-22T09:07:26;8.38;;;7.75;;
20443;SDS011;10381;53.730;10.010;2023-07-22T09:11:26;6.90;;;6.40;;
20443;SDS011;10381;53.730;10.010;2023-07-22T09:15:27;7.82;;;7.22;;
20443;SDS011;10381;53.730;10.010;2023-07-22T09:19:29;9.38;;;7.20;;
20443;SDS011;10381;53.730;10.010;2023-07-22T09:23:33;7.72;;;7.05;;
20443;SDS011;10381;53.730;10.010;2023-07-22T09:27:34;8.73;;;7.93;;
20443;SDS011;10381;53.730;10.010;2023-07-22T09:31:45;6.27;;;5.87;;
20443;SDS011;10381;53.730;10.010;2023-07-22T09:35:49;6.65;;;6.03;;
20443;SDS011;10381;53.730;10.010;2023-07-22T09:39:49;5.22;;;4.82;;
20443;SDS011;10381;53.730;10.010;2023-07-22T09:43:50;7.65;;;4.57;;
20443;SDS011;10381;53.730;10.010;2023-07-22T09:47:50;4.70;;;4.23;;
20443;SDS011;10381;53.730;10.010;2023-07-22T09:51:52;3.95;;;3.20;;
20443;SDS011;10381;53.730;10.010;2023-07-22T09:55:52;4.23;;;3.93;;
20443;SDS011;10381;53.730;10.010;2023-07-22T09:59:53;3.77;;;3.53;;
20443;SDS011;10381;53.730;10.010;2023-07-22T10:03:54;4.05;;;3.60;;
20443;SDS011;10381;53.730;10.010;2023-07-22T10:07:58;3.33;;;3.08;;
20443;SDS011;10381;53.730;10.010;2023-07-22T10:11:59;4.05;;;2.88;;
20443;SDS011;10381;53.730;10.010;2023-07-22T10:15:59;3.40;;;3.05;;
20443;SDS011;10381;53.730;10.010;2023-07-22T10:20:01;3.75;;;3.35;;
20443;SDS011;10381;53.730;10.010;2023-07-22T10:24:06;3.35;;;2.90;;
20443;SDS011;10381;53.730;10.010;2023-07-22T10:28:07;2.85;;;2.65;;
20443;SDS011;10381;53.730;10.010;2023-07-22T10:32:08;2.83;;;2.60;;
20443;SDS011;10381;53.730;10.010;2023-07-22T10:36:09;3.93;;;2.70;;
20443;SDS011;10381;53.730;10.010;2023-07-22T10:40:17;2.65;;;2.45;;
20443;SDS011;10381;53.730;10.010;2023-07-22T10:44:28;17.10;;;2.78;;
20443;SDS011;10381;53.730;10.010;2023-07-22T10:48:37;2.78;;;2.58;;
20443;SDS011;10381;53.730;10.010;2023-07-22T10:52:48;2.97;;;2.78;;
20443;SDS011;10381;53.730;10.010;2023-07-22T10:56:50;3.10;;;2.80;;
20443;SDS011;10381;53.730;10.010;2023-07-22T11:00:50;3.10;;;2.90;;
20443;SDS011;10381;53.730;10.010;2023-07-22T11:04:51;3.13;;;2.83;;
20443;SDS011;10381;53.730;10.010;2023-07-22T11:08:51;3.87;;;3.07;;
20443;SDS011;10381;53.730;10.010;2023-07-22T11:12:51;3.43;;;3.10;;
20443;SDS011;10381;53.730;10.010;2023-07-22T11:16:51;3.20;;;2.90;;
20443;SDS011;10381;53.730;10.010;2023-07-22T11:20:52;9.98;;;3.05;;
20443;SDS011;10381;53.730;10.010;2023-07-22T11:24:53;3.90;;;3.60;;
20443;SDS011;10381;53.730;10.010;2023-07-22T11:28:53;3.90;;;3.03;;
20443;SDS011;10381;53.730;10.010;2023-07-22T11:32:57;2.80;;;2.60;;
20443;SDS011;10381;53.730;10.010;2023-07-22T11:36:58;3.90;;;3.55;;
20443;SDS011;10381;53.730;10.010;2023-07-22T11:40:59;4.35;;;4.00;;
20443;SDS011;10381;53.730;10.010;2023-07-22T11:44:59;3.80;;;3.50;;
20443;SDS011;10381;53.730;10.010;2023-07-22T11:49:00;5.07;;;3.42;;
20443;SDS011;10381;53.730;10.010;2023-07-22T11:53:00;6.85;;;3.70;;
20443;SDS011;10381;53.730;10.010;2023-07-22T12:01:33;4.70;;;4.15;;
20443;SDS011;10381;53.730;10.010;2023-07-22T12:05:35;5.53;;;4.85;;
20443;SDS011;10381;53.730;10.010;2023-07-22T12:09:37;5.82;;;4.63;;
20443;SDS011;10381;53.730;10.010;2023-07-22T12:13:37;5.18;;;4.38;;
20443;SDS011;10381;53.730;10.010;2023-07-22T12:17:59;6.73;;;4.67;;
20443;SDS011;10381;53.730;10.010;2023-07-22T12:22:00;6.00;;;4.20;;
20443;SDS011;10381;53.730;10.010;2023-07-22T12:26:01;6.70;;;4.65;;
20443;SDS011;10381;53.730;10.010;2023-07-22T12:30:01;6.13;;;4.60;;
20443;SDS011;10381;53.730;10.010;2023-07-22T12:34:03;5.45;;;4.40;;
20443;SDS011;10381;53.730;10.010;2023-07-22T12:38:03;7.65;;;5.57;;
20443;SDS011;10381;53.730;10.010;2023-07-22T12:42:04;5.53;;;4.27;;
20443;SDS011;10381;53.730;10.010;2023-07-22T12:46:04;6.82;;;4.80;;
20443;SDS011;10381;53.730;10.010;2023-07-22T12:50:05;7.53;;;5.63;;
20443;SDS011;10381;53.730;10.010;2023-07-22T12:54:07;11.10;;;7.70;;
20443;SDS011;10381;53.730;10.010;2023-07-22T12:58:08;11.98;;;10.13;;
20443;SDS011;10381;53.730;10.010;2023-07-22T13:02:08;12.65;;;9.85;;
20443;SDS011;10381;53.730;10.010;2023-07-22T13:06:08;12.10;;;10.67;;
20443;SDS011;10381;53.730;10.010;2023-07-22T13:10:09;18.63;;;13.07;;
20443;SDS011;10381;53.730;10.010;2023-07-22T13:14:17;17.33;;;13.77;;
20443;SDS011;10381;53.730;10.010;2023-07-22T13:18:18;15.07;;;12.63;;
20443;SDS011;10381;53.730;10.010;2023-07-22T13:22:18;20.83;;;11.87;;
20443;SDS011;10381;53.730;10.010;2023-07-22T13:26:18;18.70;;;11.80;;
20443;SDS011;10381;53.730;10.010;2023-07-22T13:30:19;15.60;;;12.10;;
20443;SDS011;10381;53.730;10.010;2023-07-22T13:34:20;15.52;;;12.93;;
20443;SDS011;10381;53.730;10.010;2023-07-22T13:38:20;21.80;;;15.63;;
20443;SDS011;10381;53.730;10.010;2023-07-22T13:42:21;18.17;;;15.82;;
20443;SDS011;10381;53.730;10.010;2023-07-22T13:46:21;16.97;;;14.70;;
20443;SDS011;10381;53.730;10.010;2023-07-22T13:50:21;16.00;;;13.03;;
20443;SDS011;10381;53.730;10.010;2023-07-22T13:54:21;15.38;;;12.60;;
20443;SDS011;10381;53.730;10.010;2023-07-22T13:58:22;15.20;;;11.90;;
20443;SDS011;10381;53.730;10.010;2023-07-22T14:02:23;18.20;;;12.10;;
20443;SDS011;10381;53.730;10.010;2023-07-22T14:06:25;16.17;;;11.65;;
20443;SDS011;10381;53.730;10.010;2023-07-22T14:10:25;19.63;;;14.50;;
20443;SDS011;10381;53.730;10.010;2023-07-22T14:14:25;19.37;;;15.13;;
20443;SDS011;10381;53.730;10.010;2023-07-22T14:18:28;21.77;;;12.88;;
20443;SDS011;10381;53.730;10.010;2023-07-22T14:22:28;22.88;;;12.55;;
20443;SDS011;10381;53.730;10.010;2023-07-22T14:26:28;15.57;;;12.97;;
20443;SDS011;10381;53.730;10.010;2023-07-22T14:30:29;18.95;;;13.00;;
20443;SDS011;10381;53.730;10.010;2023-07-22T14:34:29;18.70;;;13.33;;
20443;SDS011;10381;53.730;10.010;2023-07-22T14:38:29;22.98;;;12.25;;
20443;SDS011;10381;53.730;10.010;2023-07-22T14:42:30;19.97;;;12.00;;
20443;SDS011;10381;53.730;10.010;2023-07-22T14:46:30;23.92;;;11.45;;
20443;SDS011;10381;53.730;10.010;2023-07-22T14:50:31;13.53;;;10.07;;
20443;SDS011;10381;53.730;10.010;2023-07-22T14:54:31;20.17;;;10.60;;
20443;SDS011;10381;53.730;10.010;2023-07-22T14:58:32;14.80;;;9.30;;
20443;SDS011;10381;53.730;10.010;2023-07-22T15:02:33;16.20;;;10.65;;
20443;SDS011;10381;53.730;10.010;2023-07-22T15:06:33;16.15;;;10.43;;
20443;SDS011;10381;53.730;10.010;2023-07-22T15:10:35;20.48;;;12.05;;
20443;SDS011;10381;53.730;10.010;2023-07-22T15:14:36;19.85;;;12.02;;
20443;SDS011;10381;53.730;10.010;2023-07-22T15:18:37;21.92;;;11.57;;
20443;SDS011;10381;53.730;10.010;2023-07-22T15:22:38;29.40;;;12.23;;
20443;SDS011;10381;53.730;10.010;2023-07-22T15:26:38;20.57;;;12.00;;
20443;SDS011;10381;53.730;10.010;2023-07-22T15:30:38;27.92;;;11.77;;
20443;SDS011;10381;53.730;10.010;2023-07-22T15:34:39;22.10;;;11.40;;
20443;SDS011;10381;53.730;10.010;2023-07-22T15:38:39;27.17;;;13.15;;
20443;SDS011;10381;53.730;10.010;2023-07-22T15:42:39;28.37;;;13.07;;
20443;SDS011;10381;53.730;10.010;2023-07-22T15:46:39;23.20;;;13.37;;
20443;SDS011;10381;53.730;10.010;2023-07-22T15:50:40;24.10;;;12.57;;
20443;SDS011;10381;53.730;10.010;2023-07-22T15:54:40;21.80;;;12.07;;
20443;SDS011;10381;53.730;10.010;2023-07-22T15:58:40;22.77;;;11.53;;
20443;SDS011;10381;53.730;10.010;2023-07-22T16:02:41;21.73;;;12.57;;
20443;SDS011;10381;53.730;10.010;2023-07-22T16:06:41;20.20;;;11.23;;
20443;SDS011;10381;53.730;10.010;2023-07-22T16:10:41;18.67;;;10.50;;
20443;SDS011;10381;53.730;10.010;2023-07-22T16:14:41;28.70;;;11.38;;
20443;SDS011;10381;53.730;10.010;2023-07-22T16:18:42;20.40;;;10.07;;
20443;SDS011;10381;53.730;10.010;2023-07-22T16:22:42;25.40;;;10.70;;
20443;SDS011;10381;53.730;10.010;2023-07-22T16:26:42;19.50;;;11.00;;
20443;SDS011;10381;53.730;10.010;2023-07-22T16:30:42;25.23;;;11.03;;
20443;SDS011;10381;53.730;10.010;2023-07-22T16:34:43;21.25;;;10.13;;
20443;SDS011;10381;53.730;10.010;2023-07-22T16:38:43;18.23;;;10.15;;
20443;SDS011;10381;53.730;10.010;2023-07-22T16:42:43;22.40;;;10.33;;
20443;SDS011;10381;53.730;10.010;2023-07-22T16:46:45;27.03;;;11.67;;
20443;SDS011;10381;53.730;10.010;2023-07-22T16:50:51;24.75;;;10.73;;
20443;SDS011;10381;53.730;10.010;2023-07-22T16:54:51;20.27;;;10.93;;
20443;SDS011;10381;53.730;10.010;2023-07-22T16:58:53;16.70;;;10.13;;
20443;SDS011;10381;53.730;10.010;2023-07-22T17:02:53;15.80;;;8.77;;
20443;SDS011;10381;53.730;10.010;2023-07-22T17:06:53;17.83;;;9.93;;
20443;SDS011;10381;53.730;10.010;2023-07-22T17:10:54;18.73;;;10.30;;
20443;SDS011;10381;53.730;10.010;2023-07-22T17:14:54;20.92;;;9.75;;
20443;SDS011;10381;53.730;10.010;2023-07-22T17:18:54;18.20;;;10.57;;
20443;SDS011;10381;53.730;10.010;2023-07-22T17:22:55;23.17;;;10.23;;
20443;SDS011;10381;53.730;10.010;2023-07-22T17:26:55;17.30;;;9.63;;
20443;SDS011;10381;53.730;10.010;2023-07-22T17:31:01;17.90;;;9.88;;
20443;SDS011;10381;53.730;10.010;2023-07-22T17:35:02;17.83;;;9.13;;
20443;SDS011;10381;53.730;10.010;2023-07-22T17:39:03;21.45;;;8.80;;
20443;SDS011;10381;53.730;10.010;2023-07-22T17:43:03;18.20;;;10.05;;
20443;SDS011;10381;53.730;10.010;2023-07-22T17:47:04;21.47;;;10.47;;
20443;SDS011;10381;53.730;10.010;2023-07-22T17:51:04;22.55;;;10.20;;
20443;SDS011;10381;53.730;10.010;2023-07-22T17:55:04;22.30;;;10.73;;
20443;SDS011;10381;53.730;10.010;2023-07-22T17:59:06;25.85;;;10.90;;
20443;SDS011;10381;53.730;10.010;2023-07-22T18:03:06;32.33;;;11.68;;
20443;SDS011;10381;53.730;10.010;2023-07-22T18:07:07;22.05;;;11.23;;
20443;SDS011;10381;53.730;10.010;2023-07-22T18:11:07;34.20;;;12.07;;
20443;SDS011;10381;53.730;10.010;2023-07-22T18:15:07;26.83;;;11.07;;
20443;SDS011;10381;53.730;10.010;2023-07-22T18:19:08;24.20;;;11.50;;
20443;SDS011;10381;53.730;10.010;2023-07-22T18:23:08;23.65;;;11.23;;
20443;SDS011;10381;53.730;10.010;2023-07-22T18:27:08;27.50;;;12.40;;
20443;SDS011;10381;53.730;10.010;2023-07-22T18:31:09;22.92;;;10.88;;
20443;SDS011;10381;53.730;10.010;2023-07-22T18:35:09;25.47;;;12.03;;
20443;SDS011;10381;53.730;10.010;2023-07-22T18:39:09;24.63;;;10.65;;
20443;SDS011;10381;53.730;10.010;2023-07-22T18:43:10;31.73;;;14.67;;
20443;SDS011;10381;53.730;10.010;2023-07-22T18:47:10;24.17;;;11.10;;
20443;SDS011;10381;53.730;10.010;2023-07-22T18:51:10;31.80;;;11.90;;
20443;SDS011;10381;53.730;10.010;2023-07-22T18:55:12;25.17;;;11.43;;
20443;SDS011;10381;53.730;10.010;2023-07-22T18:59:12;27.98;;;11.15;;
20443;SDS011;10381;53.730;10.010;2023-07-22T19:03:12;25.95;;;11.68;;
20443;SDS011;10381;53.730;10.010;2023-07-22T19:07:12;30.97;;;12.20;;
20443;SDS011;10381;53.730;10.010;2023-07-22T19:11:13;25.65;;;11.93;;
20443;SDS011;10381;53.730;10.010;2023-07-22T19:15:13;31.00;;;12.57;;
20443;SDS011;10381;53.730;10.010;2023-07-22T19:19:13;39.80;;;14.63;;
20443;SDS011;10381;53.730;10.010;2023-07-22T19:23:14;24.88;;;11.43;;
20443;SDS011;10381;53.730;10.010;2023-07-22T19:27:14;29.27;;;12.67;;
20443;SDS011;10381;53.730;10.010;2023-07-22T19:31:14;26.00;;;12.35;;
20443;SDS011;10381;53.730;10.010;2023-07-22T19:35:16;38.22;;;13.07;;
20443;SDS011;10381;53.730;10.010;2023-07-22T19:39:16;24.00;;;12.20;;
20443;SDS011;10381;53.730;10.010;2023-07-22T19:43:16;26.65;;;13.32;;
20443;SDS011;10381;53.730;10.010;2023-07-22T19:47:17;35.93;;;12.30;;
20443;SDS011;10381;53.730;10.010;2023-07-22T19:51:17;32.53;;;14.48;;
20443;SDS011;10381;53.730;10.010;2023-07-22T19:55:18;30.45;;;13.50;;
20443;SDS011;10381;53.730;10.010;2023-07-22T19:59:19;28.48;;;12.50;;
20443;SDS011;10381;53.730;10.010;2023-07-22T20:03:19;33.43;;;13.43;;
20443;SDS011;10381;53.730;10.010;2023-07-22T20:07:20;30.35;;;13.20;;
20443;SDS011;10381;53.730;10.010;2023-07-22T20:11:20;28.60;;;12.23;;
20443;SDS011;10381;53.730;10.010;2023-07-22T20:15:21;24.73;;;11.90;;
20443;SDS011;10381;53.730;10.010;2023-07-22T20:19:21;36.27;;;11.83;;
20443;SDS011;10381;53.730;10.010;2023-07-22T20:23:21;22.23;;;11.88;;
20443;SDS011;10381;53.730;10.010;2023-07-22T20:27:22;22.02;;;11.13;;
20443;SDS011;10381;53.730;10.010;2023-07-22T20:31:22;27.20;;;10.77;;
20443;SDS011;10381;53.730;10.010;2023-07-22T20:35:22;30.23;;;11.40;;
20443;SDS011;10381;53.730;10.010;2023-07-22T20:39:23;24.20;;;11.27;;
20443;SDS011;10381;53.730;10.010;2023-07-22T20:43:23;38.93;;;11.30;;
20443;SDS011;10381;53.730;10.010;2023-07-22T20:47:23;22.83;;;9.33;;
20443;SDS011;10381;53.730;10.010;2023-07-22T20:51:23;31.57;;;10.63;;
20443;SDS011;10381;53.730;10.010;2023-07-22T20:55:24;19.90;;;10.50;;
20443;SDS011;10381;53.730;10.010;2023-07-22T20:59:24;19.43;;;9.33;;
20443;SDS011;10381;53.730;10.010;2023-07-22T21:03:24;18.37;;;9.27;;
20443;SDS011;10381;53.730;10.010;2023-07-22T21:07:24;17.60;;;8.55;;
20443;SDS011;10381;53.730;10.010;2023-07-22T21:11:26;27.35;;;9.65;;
20443;SDS011;10381;53.730;10.010;2023-07-22T21:15:26;31.07;;;11.50;;
20443;SDS011;10381;53.730;10.010;2023-07-22T21:19:27;29.60;;;10.93;;
20443;SDS011;10381;53.730;10.010;2023-07-22T21:23:27;27.30;;;10.32;;
20443;SDS011;10381;53.730;10.010;2023-07-22T21:27:27;26.10;;;10.17;;
20443;SDS011;10381;53.730;10.010;2023-07-22T21:31:29;26.13;;;10.80;;
20443;SDS011;10381;53.730;10.010;2023-07-22T21:35:34;31.38;;;13.27;;
20443;SDS011;10381;53.730;10.010;2023-07-22T21:39:35;25.65;;;12.07;;
20443;SDS011;10381;53.730;10.010;2023-07-22T21:43:35;24.55;;;11.05;;
20443;SDS011;10381;53.730;10.010;2023-07-22T21:47:36;23.67;;;12.40;;
20443;SDS011;10381;53.730;10.010;2023-07-22T21:51:36;36.67;;;13.27;;
20443;SDS011;10381;53.730;10.010;2023-07-22T21:55:39;39.85;;;13.52;;
20443;SDS011;10381;53.730;10.010;2023-07-22T21:59:39;40.30;;;13.27;;
20443;SDS011;10381;53.730;10.010;2023-07-22T22:03:40;29.63;;;13.30;;
20443;SDS011;10381;53.730;10.010;2023-07-22T22:07:40;26.63;;;14.03;;
20443;SDS011;10381;53.730;10.010;2023-07-22T22:11:41;32.05;;;14.55;;
20443;SDS011;10381;53.730;10.010;2023-07-22T22:15:41;33.80;;;13.73;;
20443;SDS011;10381;53.730;10.010;2023-07-22T22:19:41;24.23;;;12.70;;
20443;SDS011;10381;53.730;10.010;2023-07-22T22:23:42;27.70;;;12.03;;
20443;SDS011;10381;53.730;10.010;2023-07-22T22:27:42;30.67;;;12.60;;
20443;SDS011;10381;53.730;10.010;2023-07-22T22:31:43;24.70;;;12.10;;
20443;SDS011;10381;53.730;10.010;2023-07-22T22:35:43;27.20;;;11.82;;
20443;SDS011;10381;53.730;10.010;2023-07-22T22:39:43;28.83;;;11.63;;
20443;SDS011;10381;53.730;10.010;2023-07-22T22:43:44;21.80;;;10.67;;
20443;SDS011;10381;53.730;10.010;2023-07-22T22:47:44;20.13;;;9.50;;
20443;SDS011;10381;53.730;10.010;2023-07-22T22:51:44;16.67;;;9.83;;
20443;SDS011;10381;53.730;10.010;2023-07-22T22:55:44;17.73;;;10.07;;
20443;SDS011;10381;53.730;10.010;2023-07-22T22:59:50;20.80;;;9.77;;
20443;SDS011;10381;53.730;10.010;2023-07-22T23:03:50;23.60;;;10.33;;
20443;SDS011;10381;53.730;10.010;2023-07-22T23:07:51;19.00;;;9.37;;
20443;SDS011;10381;53.730;10.010;2023-07-22T23:11:51;17.77;;;10.07;;
20443;SDS011;10381;53.730;10.010;2023-07-22T23:15:52;23.50;;;10.65;;
20443;SDS011;10381;53.730;10.010;2023-07-22T23:19:52;23.03;;;10.17;;
20443;SDS011;10381;53.730;10.010;2023-07-22T23:23:52;22.02;;;10.35;;